Time;durP1;ratioP1;P1;durP2;ratioP2;P2;SDS_P1;SDS_P2;PMS_P1;PMS_P2;Temp;Humidity;BMP_temperature;BMP_pressure;BME280_temperature;BME280_humidity;BME280_pressure;Samples;Min_cycle;Max_cycle;Signal;HPM_P1;HPM_P2
2021/09/09 00:01:07;;;;;;;4.05;2.00;;;;;;;29.49;61.41;100710.91;5077938;28;66291;-37
2021/09/09 00:03:38;;;;;;;4.32;1.92;;;;;;;29.51;61.83;100715.06;5077467;28;69219;-38
2021/09/09 00:06:11;;;;;;;8.77;2.40;;;;;;;29.62;63.22;100716.25;5075116;28;66245;-37
2021/09/09 00:08:43;;;;;;;11.85;2.78;;;;;;;29.76;62.79;100723.28;5073311;28;69876;-36
2021/09/09 00:11:15;;;;;;;10.15;3.33;;;;;;;29.83;63.79;100724.06;5068512;28;65487;-36
2021/09/09 00:13:49;;;;;;;3.22;3.00;;;;;;;29.88;64.70;100725.28;5068957;28;69634;-36
2021/09/09 00:16:23;;;;;;;5.72;3.45;;;;;;;29.88;64.55;100722.59;5074875;28;66003;-38
2021/09/09 00:19:02;;;;;;;6.00;3.60;;;;;;;29.91;64.85;100730.28;5058278;28;70211;-38
2021/09/09 00:21:39;;;;;;;4.55;3.55;;;;;;;29.93;65.56;100744.41;5059123;28;66404;-36
2021/09/09 00:24:18;;;;;;;5.85;3.40;;;;;;;29.80;66.67;100719.09;5053913;28;70485;-38
2021/09/09 00:26:57;;;;;;;4.90;4.50;;;;;;;29.89;66.23;100729.66;5039815;28;67063;-37
2021/09/09 00:29:39;;;;;;;4.93;4.40;;;;;;;29.90;66.30;100724.03;5071763;28;70432;-37
2021/09/09 00:32:31;;;;;;;7.07;4.55;;;;;;;29.97;65.88;100742.91;5055209;28;65656;-37
2021/09/09 00:35:11;;;;;;;4.10;3.70;;;;;;;29.96;65.55;100750.19;5046749;27;70256;-37
2021/09/09 00:38:07;;;;;;;6.40;3.33;;;;;;;30.03;65.56;100752.84;5068539;28;66664;-37
2021/09/09 00:40:49;;;;;;;5.38;4.13;;;;;;;30.08;65.67;100769.25;5079678;28;69280;-38
2021/09/09 00:43:44;;;;;;;4.45;4.05;;;;;;;30.06;66.16;100772.22;5045996;28;65631;-38
2021/09/09 00:46:31;;;;;;;4.80;4.30;;;;;;;30.14;65.85;100768.38;5074979;28;70205;-38
2021/09/09 00:49:23;;;;;;;7.00;4.50;;;;;;;30.21;65.50;100771.91;5059463;28;66228;-38
2021/09/09 00:52:23;;;;;;;4.35;3.92;;;;;;;30.26;65.64;100780.22;5061128;28;69660;-37
2021/09/09 00:55:20;;;;;;;4.53;4.07;;;;;;;30.24;66.31;100782.31;5062237;28;66767;-37
2021/09/09 00:58:09;;;;;;;4.47;4.07;;;;;;;30.29;65.26;100787.06;5058317;28;70304;-39
2021/09/09 01:00:57;;;;;;;4.40;4.00;;;;;;;30.34;65.11;100794.53;5050061;28;65152;-37
2021/09/09 01:03:39;;;;;;;3.95;3.65;;;;;;;30.37;65.62;100799.50;5037117;28;69951;-37
2021/09/09 01:06:57;;;;;;;4.10;3.80;;;;;;;30.38;65.62;100812.00;5069456;28;66830;-38
2021/09/09 01:10:04;;;;;;;3.92;3.63;;;;;;;30.34;66.03;100808.91;5040753;28;70099;-37
2021/09/09 01:13:22;;;;;;;3.80;3.50;;;;;;;30.43;66.02;100820.28;5070692;28;65739;-37
2021/09/09 01:16:45;;;;;;;3.30;3.10;;;;;;;30.48;65.49;100834.00;5074606;28;70442;-37
2021/09/09 01:19:49;;;;;;;4.38;3.53;;;;;;;30.53;65.57;100842.28;5055011;28;66903;-37
2021/09/09 01:23:42;;;;;;;3.83;3.53;;;;;;;30.65;65.69;100845.94;5072805;28;69757;-37
2021/09/09 01:27:09;;;;;;;3.63;3.35;;;;;;;30.66;65.96;100847.59;5044871;28;66150;-36
2021/09/09 01:29:59;;;;;;;3.47;3.13;;;;;;;30.67;66.02;100843.84;5060375;28;70491;-37
2021/09/09 01:32:51;;;;;;;3.30;3.00;;;;;;;30.62;65.73;100846.38;5039506;28;65214;-37
2021/09/09 01:35:44;;;;;;;4.32;3.33;;;;;;;30.66;65.54;100850.31;5028863;28;69748;-38
2021/09/09 01:38:59;;;;;;;9.68;3.85;;;;;;;30.69;65.35;100852.56;5055889;28;66029;-39
2021/09/09 01:42:35;;;;;;;3.92;3.17;;;;;;;30.72;65.31;100857.53;5066430;28;71113;-38
2021/09/09 01:45:53;;;;;;;4.15;3.50;;;;;;;30.69;65.70;100847.16;5062783;28;66238;-38
2021/09/09 01:48:55;;;;;;;4.32;3.08;;;;;;;30.67;65.94;100851.97;5050891;28;70364;-38
2021/09/09 01:51:46;;;;;;;;;;;;;;;30.57;65.87;100848.91;5042827;28;65295;-38
2021/09/09 01:54:26;;;;;;;2.88;2.67;;;;;;;30.77;65.34;100854.19;5060232;28;70625;-38
2021/09/09 01:57:43;;;;;;;2.95;2.50;;;;;;;30.79;66.05;100851.28;5062133;28;65550;-38
2021/09/09 02:00:42;;;;;;;12.95;3.10;;;;;;;30.87;65.63;100848.28;5021757;28;70364;-37
2021/09/09 02:03:33;;;;;;;3.65;2.60;;;;;;;30.65;65.38;100818.88;5025097;28;66281;-37
2021/09/09 02:06:58;;;;;;;4.38;2.90;;;;;;;30.89;65.41;100851.63;5056043;28;70420;-37
2021/09/09 02:09:58;;;;;;;2.83;2.45;;;;;;;30.90;65.29;100837.03;5059603;28;66287;-39
2021/09/09 02:13:05;;;;;;;2.72;2.35;;;;;;;30.95;65.04;100839.88;5061227;28;70285;-38
2021/09/09 02:15:48;;;;;;;5.72;2.47;;;;;;;31.00;65.13;100825.69;5051784;28;66009;-38
2021/09/09 02:18:41;;;;;;;3.42;2.30;;;;;;;31.03;65.29;100820.66;5040235;28;68724;-38
2021/09/09 02:22:17;;;;;;;4.18;2.97;;;;;;;31.05;65.25;100833.97;5061685;28;65962;-37
2021/09/09 02:25:11;;;;;;;2.53;2.30;;;;;;;31.09;64.78;100822.47;5072867;28;69698;-38
2021/09/09 02:27:59;;;;;;;;;;;;;;;30.98;64.64;100825.94;5050019;28;65795;-38
2021/09/09 02:30:43;;;;;;;3.00;2.22;;;;;;;31.16;64.24;100822.41;5074915;28;70293;-37
2021/09/09 02:33:41;;;;;;;2.40;2.00;;;;;;;31.16;63.65;100819.69;5070030;28;66390;-42
2021/09/09 02:36:59;;;;;;;3.88;2.03;;;;;;;31.09;63.83;100803.53;5020894;28;70235;-38
2021/09/09 02:40:10;;;;;;;3.20;2.00;;;;;;;31.19;63.50;100815.72;5054360;28;65608;-38
2021/09/09 02:43:08;;;;;;;5.10;2.47;;;;;;;31.23;63.07;100800.66;5052915;28;69582;-38
2021/09/09 02:46:20;;;;;;;3.42;1.75;;;;;;;31.28;62.39;100800.81;5045243;28;65704;-38
2021/09/09 02:49:15;;;;;;;7.43;2.50;;;;;;;31.29;62.25;100788.94;5029257;28;69362;-38
2021/09/09 02:52:03;;;;;;;2.63;2.00;;;;;;;31.27;63.45;100788.31;5035105;28;66383;-37
2021/09/09 02:55:04;;;;;;;3.13;1.95;;;;;;;31.08;64.59;100788.28;5031061;28;69305;-38
2021/09/09 02:57:49;;;;;;;2.78;1.90;;;;;;;31.13;64.06;100785.75;5072611;28;65131;-37
2021/09/09 03:00:37;;;;;;;1.92;1.50;;;;;;;30.92;63.81;100749.09;5032929;28;70166;-37
2021/09/09 03:03:26;;;;;;;2.88;2.17;;;;;;;31.20;63.89;100774.81;5046430;28;65759;-37
2021/09/09 03:06:18;;;;;;;1.70;1.60;;;;;;;31.30;63.15;100777.03;5046038;28;71022;-39
2021/09/09 03:09:21;;;;;;;6.80;2.58;;;;;;;31.45;61.44;100785.63;5051622;28;66312;-36
2021/09/09 03:12:29;;;;;;;2.90;2.10;;;;;;;31.35;61.11;100758.22;5069598;27;69962;-38
2021/09/09 03:15:17;;;;;;;3.40;2.30;;;;;;;31.48;60.93;100787.91;5045317;28;65972;-39
2021/09/09 03:18:07;;;;;;;8.60;2.22;;;;;;;31.39;61.21;100775.69;5048722;28;70111;-39
2021/09/09 03:21:03;;;;;;;5.65;2.03;;;;;;;31.15;61.07;100739.47;5034763;28;66419;-38
2021/09/09 03:23:48;;;;;;;2.28;1.83;;;;;;;31.38;61.22;100771.34;5051540;28;70484;-37
2021/09/09 03:26:26;;;;;;;4.53;2.15;;;;;;;31.47;61.25;100782.69;5077079;28;66573;-37
2021/09/09 03:29:12;;;;;;;2.40;2.17;;;;;;;31.43;61.36;100757.94;5034169;27;70579;-38
2021/09/09 03:31:52;;;;;;;2.00;1.85;;;;;;;31.48;61.32;100763.50;5046901;28;66583;-38
2021/09/09 03:34:35;;;;;;;5.63;2.28;;;;;;;31.29;61.16;100726.59;5052956;28;69884;-39
2021/09/09 03:37:29;;;;;;;3.17;2.20;;;;;;;31.48;61.42;100754.53;5071477;28;66093;-38
2021/09/09 03:40:12;;;;;;;2.40;2.13;;;;;;;31.50;61.50;100761.38;5067593;28;70260;-38
2021/09/09 03:42:48;;;;;;;2.17;1.83;;;;;;;31.52;61.05;100762.00;5050743;28;65513;-38
2021/09/09 03:45:37;;;;;;;4.28;2.15;;;;;;;31.54;61.17;100773.44;5053564;28;69470;-40
2021/09/09 03:48:24;;;;;;;4.85;2.13;;;;;;;31.54;61.78;100776.16;5068646;28;66549;-40
2021/09/09 03:50:59;;;;;;;5.07;2.40;;;;;;;31.56;62.49;100776.72;5049111;28;70309;-37
2021/09/09 03:53:33;;;;;;;3.78;2.25;;;;;;;31.44;62.11;100742.50;5065038;27;65287;-39
2021/09/09 03:56:07;;;;;;;2.72;2.17;;;;;;;31.63;62.03;100771.25;5034790;28;69208;-38
2021/09/09 03:58:54;;;;;;;2.58;2.22;;;;;;;31.60;61.70;100761.69;5054181;28;66144;-38
2021/09/09 04:01:29;;;;;;;6.13;2.22;;;;;;;31.65;61.33;100762.88;5046134;28;70523;-38
2021/09/09 04:04:08;;;;;;;2.58;2.38;;;;;;;31.67;61.68;100766.19;5040497;28;65559;-38
2021/09/09 04:06:42;;;;;;;5.70;2.53;;;;;;;31.69;61.33;100774.94;5068691;28;70472;-37
2021/09/09 04:09:20;;;;;;;2.45;1.92;;;;;;;31.71;61.48;100770.13;5063780;28;65463;-47
2021/09/09 04:11:58;;;;;;;5.85;2.97;;;;;;;31.75;61.68;100765.88;5067674;28;69842;-38
2021/09/09 04:14:35;;;;;;;2.88;2.58;;;;;;;31.73;61.36;100765.25;5066058;28;65934;-37
2021/09/09 04:17:10;;;;;;;2.75;2.45;;;;;;;31.77;61.35;100752.91;5032287;28;70289;-39
2021/09/09 04:19:45;;;;;;;3.08;2.58;;;;;;;31.76;61.73;100748.53;5066861;28;65910;-40
2021/09/09 04:22:18;;;;;;;4.13;2.50;;;;;;;31.77;61.49;100755.63;5053517;28;69333;-39
2021/09/09 04:24:52;;;;;;;3.10;2.53;;;;;;;31.75;61.24;100745.00;5048394;28;66924;-38
2021/09/09 04:27:31;;;;;;;5.30;2.53;;;;;;;31.79;61.60;100748.09;5054221;28;69521;-38
2021/09/09 04:30:07;;;;;;;2.88;2.60;;;;;;;31.81;61.13;100752.22;5070492;28;66396;-39
2021/09/09 04:32:41;;;;;;;3.25;2.95;;;;;;;31.80;61.11;100733.47;5068629;27;70168;-36
2021/09/09 04:35:16;;;;;;;3.08;2.80;;;;;;;31.83;61.47;100733.00;5072204;27;66145;-38
2021/09/09 04:37:51;;;;;;;2.60;2.40;;;;;;;31.87;61.36;100723.34;5044197;28;69704;-38
2021/09/09 04:40:30;;;;;;;2.67;2.30;;;;;;;31.90;60.74;100728.31;5074076;28;65662;-39
2021/09/09 04:43:07;;;;;;;6.65;2.95;;;;;;;31.92;61.25;100719.97;5070974;28;70522;-39
2021/09/09 04:45:41;;;;;;;6.53;3.15;;;;;;;31.94;60.80;100712.44;5072124;28;66281;-37
2021/09/09 04:48:14;;;;;;;3.63;2.80;;;;;;;31.91;60.76;100708.28;5069654;28;70244;-38
2021/09/09 04:50:49;;;;;;;3.38;2.88;;;;;;;31.97;60.59;100711.97;5070561;27;66636;-39
2021/09/09 04:53:24;;;;;;;2.67;2.47;;;;;;;31.97;60.70;100712.78;5070972;28;70172;-38
2021/09/09 04:55:58;;;;;;;3.53;2.40;;;;;;;31.85;61.74;100706.50;5049704;28;67110;-42
2021/09/09 04:58:33;;;;;;;3.30;2.60;;;;;;;31.76;62.58;100706.00;5070435;28;70047;-42
2021/09/09 05:01:06;;;;;;;4.65;2.83;;;;;;;31.76;63.58;100703.28;5031237;28;66733;-42
2021/09/09 05:03:41;;;;;;;5.40;3.03;;;;;;;31.73;64.03;100697.47;5065657;28;70247;-43
2021/09/09 05:06:15;;;;;;;2.60;2.33;;;;;;;31.73;63.97;100678.47;5060907;28;65893;-41
2021/09/09 05:08:48;;;;;;;4.10;2.75;;;;;;;31.74;64.39;100674.72;5051873;28;70458;-41
2021/09/09 05:11:22;;;;;;;3.78;2.35;;;;;;;31.43;64.29;100617.00;5068264;28;66147;-41
2021/09/09 05:13:55;;;;;;;4.63;3.25;;;;;;;31.79;64.64;100666.72;5064574;28;70595;-42
2021/09/09 05:16:31;;;;;;;3.65;2.85;;;;;;;31.80;64.73;100655.63;5071477;28;65957;-43
2021/09/09 05:19:05;;;;;;;11.35;2.80;;;;;;;31.79;62.58;100645.03;5055672;28;70843;-42
2021/09/09 05:21:38;;;;;;;6.35;2.53;;;;;;;31.72;61.41;100655.97;5072954;28;66377;-41
2021/09/09 05:24:12;;;;;;;4.60;2.70;;;;;;;31.60;60.78;100653.22;5073507;28;70190;-42
2021/09/09 05:26:45;;;;;;;7.30;2.47;;;;;;;31.52;59.32;100672.53;5074531;28;66793;-40
2021/09/09 05:29:22;;;;;;;10.05;2.28;;;;;;;31.43;58.73;100695.59;5068241;28;71018;-42
2021/09/09 05:31:58;;;;;;;6.78;2.30;;;;;;;31.32;57.95;100696.34;5075362;28;66163;-40
2021/09/09 05:34:33;;;;;;;3.15;2.30;;;;;;;31.26;58.85;100697.22;5072531;28;69547;-41
2021/09/09 05:37:07;;;;;;;10.07;2.40;;;;;;;31.21;58.29;100725.03;5068130;28;66256;-39
2021/09/09 05:39:40;;;;;;;11.75;2.50;;;;;;;31.25;58.65;100733.50;5077653;28;69493;-41
2021/09/09 05:42:13;;;;;;;11.77;3.00;;;;;;;31.24;58.09;100750.84;5075969;28;66412;-40
2021/09/09 05:44:47;;;;;;;38.10;3.28;;;;;;;31.21;58.08;100735.03;5074397;28;69708;-40
2021/09/09 05:47:20;;;;;;;24.85;3.63;;;;;;;31.14;58.19;100730.50;5050347;28;66174;-39
2021/09/09 05:50:03;;;;;;;18.50;3.15;;;;;;;31.10;57.75;100729.31;5067603;28;70383;-41
2021/09/09 05:52:37;;;;;;;20.60;3.58;;;;;;;31.01;56.64;100687.31;5062332;28;65846;-39
2021/09/09 05:55:16;;;;;;;19.58;3.70;;;;;;;30.52;56.56;100607.84;5048035;28;70854;-39
2021/09/09 05:57:50;;;;;;;17.02;3.72;;;;;;;30.92;55.89;100672.41;5067379;28;67248;-39
2021/09/09 06:00:24;;;;;;;14.18;2.83;;;;;;;30.80;55.74;100675.03;5048371;28;69727;-40
2021/09/09 06:03:02;;;;;;;18.50;2.80;;;;;;;30.82;55.53;100683.78;5032290;28;65682;-39
2021/09/09 06:05:40;;;;;;;13.93;3.03;;;;;;;30.85;55.70;100679.78;5073691;28;70106;-40
2021/09/09 06:08:17;;;;;;;10.13;2.97;;;;;;;30.80;54.89;100679.63;5074517;28;65381;-40
2021/09/09 06:10:53;;;;;;;17.05;2.20;;;;;;;30.71;54.83;100666.34;5068977;28;68769;-40
2021/09/09 06:13:27;;;;;;;10.45;2.53;;;;;;;30.69;54.49;100654.91;5073330;28;65664;-40
2021/09/09 06:16:01;;;;;;;11.60;2.30;;;;;;;30.68;53.58;100660.56;5070310;28;69942;-40
2021/09/09 06:18:35;;;;;;;9.95;2.67;;;;;;;30.62;53.66;100648.75;5041168;28;65047;-40
2021/09/09 06:21:11;;;;;;;4.55;1.95;;;;;;;30.56;52.79;100636.09;5058411;28;69944;-39
2021/09/09 06:23:45;;;;;;;5.25;1.95;;;;;;;30.50;52.21;100631.59;5073589;27;67263;-44
2021/09/09 06:26:22;;;;;;;4.35;2.15;;;;;;;30.31;52.28;100592.00;5049545;28;70406;-40
2021/09/09 06:28:57;;;;;;;2.90;1.88;;;;;;;30.44;51.89;100621.66;5067896;28;66176;-39
2021/09/09 06:31:35;;;;;;;6.82;2.15;;;;;;;30.37;51.99;100610.06;5073978;28;70476;-40
2021/09/09 06:34:10;;;;;;;2.50;1.88;;;;;;;30.34;51.33;100605.09;5052218;28;66930;-40
2021/09/09 06:36:48;;;;;;;2.38;1.38;;;;;;;30.28;50.96;100599.56;5042321;28;69984;-39
2021/09/09 06:39:22;;;;;;;2.88;1.83;;;;;;;30.27;51.36;100594.34;5040009;28;66343;-40
2021/09/09 06:41:57;;;;;;;3.05;1.98;;;;;;;30.23;50.69;100588.56;5072714;28;70759;-40
2021/09/09 06:44:38;;;;;;;4.35;1.80;;;;;;;30.19;50.42;100576.47;5054523;28;65579;-40
2021/09/09 06:47:12;;;;;;;3.40;2.08;;;;;;;30.15;50.34;100564.47;5058720;28;70408;-40
2021/09/09 06:50:05;;;;;;;2.40;1.95;;;;;;;30.15;49.80;100548.25;5070841;28;66007;-40
2021/09/09 06:52:53;;;;;;;2.47;1.42;;;;;;;30.13;50.11;100542.22;5052987;28;69731;-40
2021/09/09 06:55:40;;;;;;;2.20;1.95;;;;;;;30.05;50.12;100532.50;5050794;28;65102;-41
2021/09/09 06:58:24;;;;;;;2.95;1.05;;;;;;;30.08;49.69;100533.13;5058797;28;69521;-39
2021/09/09 07:01:25;;;;;;;2.35;1.67;;;;;;;30.05;49.72;100524.38;5056261;28;66171;-39
2021/09/09 07:04:01;;;;;;;1.77;1.58;;;;;;;30.00;49.33;100521.53;5043445;28;69641;-40
2021/09/09 07:06:35;;;;;;;1.90;1.40;;;;;;;29.92;49.69;100511.03;5032365;28;66650;-39
2021/09/09 07:09:16;;;;;;;1.77;1.60;;;;;;;30.01;49.14;100525.06;5038223;28;69912;-39
2021/09/09 07:12:11;;;;;;;1.75;1.40;;;;;;;29.94;48.68;100521.59;5057504;28;65404;-39
2021/09/09 07:15:07;;;;;;;6.90;1.88;;;;;;;29.98;48.45;100517.41;5044378;28;69482;-39
2021/09/09 07:17:48;;;;;;;2.33;1.20;;;;;;;29.97;49.17;100499.50;5055327;28;66817;-39
2021/09/09 07:20:38;;;;;;;4.03;1.40;;;;;;;29.85;48.56;100472.38;5027460;28;70041;-40
2021/09/09 07:23:28;;;;;;;1.70;1.27;;;;;;;29.93;48.53;100487.50;5040750;28;66925;-40
2021/09/09 07:26:07;;;;;;;;;;;;;;;29.61;48.51;100487.53;5042674;28;68629;-41
2021/09/09 07:28:50;;;;;;;1.67;1.40;;;;;;;29.90;48.47;100480.66;5070289;28;67036;-40
2021/09/09 07:31:31;;;;;;;2.30;1.67;;;;;;;29.87;48.20;100470.28;5052414;28;69122;-40
2021/09/09 07:34:27;;;;;;;2.75;1.35;;;;;;;29.82;48.17;100457.44;5071537;28;65450;-39
2021/09/09 07:37:20;;;;;;;8.98;1.42;;;;;;;29.88;47.91;100460.31;5070267;28;70147;-39
2021/09/09 07:40:24;;;;;;;4.32;1.58;;;;;;;29.84;48.45;100455.34;5067773;28;65335;-39
2021/09/09 07:43:10;;;;;;;7.47;1.55;;;;;;;29.79;48.87;100441.66;5052055;28;70085;-39
2021/09/09 07:45:57;;;;;;;10.32;1.77;;;;;;;29.42;49.30;100389.41;5045663;28;66294;-40
2021/09/09 07:48:40;;;;;;;8.65;1.58;;;;;;;29.85;48.65;100461.56;5046250;28;69936;-39
2021/09/09 07:51:23;;;;;;;23.17;1.80;;;;;;;29.49;48.54;100386.63;5045235;28;66311;-39
2021/09/09 07:54:27;;;;;;;10.88;1.42;;;;;;;29.87;48.76;100448.66;5065449;28;70107;-39
2021/09/09 07:57:01;;;;;;;8.70;1.55;;;;;;;29.88;49.05;100444.06;5031379;28;66460;-38
2021/09/09 08:00:07;;;;;;;6.68;1.55;;;;;;;29.81;47.53;100438.72;5053568;28;70930;-40
2021/09/09 08:02:47;;;;;;;8.82;1.63;;;;;;;29.88;47.89;100444.06;5048026;28;67017;-38
2021/09/09 08:05:43;;;;;;;5.13;1.90;;;;;;;29.87;48.72;100445.13;5045930;28;70179;-39
2021/09/09 08:08:33;;;;;;;3.28;1.33;;;;;;;29.84;48.71;100444.53;5047700;27;65992;-39
2021/09/09 08:11:13;;;;;;;5.00;1.20;;;;;;;29.89;48.46;100456.53;5007186;28;69306;-39
2021/09/09 08:13:59;;;;;;;4.28;1.67;;;;;;;29.89;48.28;100451.13;5055349;28;66482;-42
2021/09/09 08:16:49;;;;;;;3.95;1.33;;;;;;;29.90;48.37;100452.81;5069409;28;69898;-39
2021/09/09 08:19:45;;;;;;;19.48;1.90;;;;;;;29.94;49.17;100443.19;5076384;28;65767;-39
2021/09/09 08:22:26;;;;;;;15.27;1.48;;;;;;;28.83;49.38;100270.00;5020801;28;71109;-40
2021/09/09 08:25:10;;;;;;;15.98;1.48;;;;;;;29.99;48.93;100456.84;5027855;28;66141;-40
2021/09/09 08:28:08;;;;;;;16.08;1.70;;;;;;;30.02;49.02;100440.19;5070112;28;69349;-41
2021/09/09 08:31:01;;;;;;;22.25;1.70;;;;;;;30.05;48.67;100453.25;5040091;28;65524;-40
2021/09/09 08:33:42;;;;;;;17.10;1.90;;;;;;;30.10;48.93;100452.59;5075899;28;70421;-40
2021/09/09 08:36:38;;;;;;;8.85;1.60;;;;;;;29.74;48.54;100383.91;5028733;28;66633;-39
2021/09/09 08:39:20;;;;;;;4.50;1.40;;;;;;;30.13;48.14;100444.84;5039911;28;69408;-40
2021/09/09 08:42:01;;;;;;;8.38;1.95;;;;;;;30.17;47.59;100454.16;5056419;28;66053;-40
2021/09/09 08:44:43;;;;;;;8.73;1.75;;;;;;;29.75;47.12;100382.84;5029318;28;70535;-40
2021/09/09 08:47:43;;;;;;;10.00;1.80;;;;;;;29.54;47.66;100357.06;4997943;28;64583;-40
2021/09/09 08:50:46;;;;;;;7.50;1.23;;;;;;;30.14;47.69;100454.59;5030004;28;70285;-40
2021/09/09 08:53:33;;;;;;;3.28;1.40;;;;;;;29.74;47.18;100390.13;5031655;28;65527;-40
2021/09/09 08:56:16;;;;;;;6.28;1.30;;;;;;;30.14;46.85;100453.78;5001484;28;70218;-40
2021/09/09 08:58:58;;;;;;;2.25;1.23;;;;;;;30.11;46.33;100449.63;5015394;28;65219;-41
2021/09/09 09:02:10;;;;;;;3.00;1.25;;;;;;;30.00;46.32;100440.38;5028104;28;70434;-39
2021/09/09 09:05:07;;;;;;;2.65;1.08;;;;;;;30.01;46.56;100433.94;5020403;28;66353;-40
2021/09/09 09:08:03;;;;;;;12.48;1.58;;;;;;;30.04;48.19;100436.19;5018542;28;69848;-39
2021/09/09 09:10:38;;;;;;;9.57;1.20;;;;;;;30.16;49.08;100436.25;5018522;28;66632;-40
2021/09/09 09:13:17;;;;;;;3.88;1.38;;;;;;;30.27;49.63;100424.72;5015794;28;70828;-41
2021/09/09 09:16:01;;;;;;;3.65;1.40;;;;;;;30.37;51.16;100426.03;5011938;28;67093;-41
2021/09/09 09:18:43;;;;;;;3.22;1.40;;;;;;;30.50;53.66;100425.88;5014091;28;69347;-41
2021/09/09 09:21:21;;;;;;;4.93;1.65;;;;;;;30.62;55.13;100445.72;4985165;28;65433;-41
2021/09/09 09:23:58;;;;;;;5.63;2.15;;;;;;;30.68;56.76;100449.38;5001854;28;69438;-41
2021/09/09 09:26:31;;;;;;;7.90;1.67;;;;;;;30.75;58.26;100441.97;5015656;28;65607;-40
2021/09/09 09:29:12;;;;;;;3.17;1.65;;;;;;;30.80;58.83;100452.16;5018331;28;69739;-41
2021/09/09 09:31:48;;;;;;;9.38;1.98;;;;;;;30.96;58.72;100462.34;5054260;28;66360;-41
2021/09/09 09:34:28;;;;;;;8.00;1.77;;;;;;;30.91;60.36;100446.78;5074547;28;70098;-41
2021/09/09 09:37:04;;;;;;;3.00;1.88;;;;;;;31.12;60.20;100483.38;5078083;28;65645;-41
2021/09/09 09:39:38;;;;;;;2.65;2.00;;;;;;;31.21;60.86;100485.75;5072738;27;70077;-41
2021/09/09 09:42:26;;;;;;;4.60;1.90;;;;;;;31.24;61.67;100501.53;5057601;28;66727;-41
2021/09/09 09:45:14;;;;;;;4.93;2.20;;;;;;;31.31;62.79;100529.34;5057062;28;70362;-40
2021/09/09 09:47:53;;;;;;;4.20;2.00;;;;;;;30.51;61.74;100422.13;5068283;28;65446;-41
2021/09/09 09:50:37;;;;;;;2.40;2.15;;;;;;;31.38;61.89;100568.06;5037560;28;70017;-40
2021/09/09 09:53:18;;;;;;;2.85;1.85;;;;;;;31.38;62.69;100568.88;5069128;28;66865;-41
2021/09/09 09:55:54;;;;;;;4.20;1.27;;;;;;;31.40;62.12;100571.38;5024734;28;69696;-39
2021/09/09 09:58:31;;;;;;;3.80;1.58;;;;;;;31.41;62.90;100586.56;5073669;28;66232;-40
2021/09/09 10:01:13;;;;;;;1.92;1.70;;;;;;;31.06;62.79;100535.75;5056150;28;70074;-40
2021/09/09 10:03:50;;;;;;;1.67;1.10;;;;;;;31.45;62.16;100595.06;5058606;28;65385;-41
2021/09/09 10:06:44;;;;;;;2.67;1.63;;;;;;;31.50;62.62;100606.84;5056142;28;70135;-40
2021/09/09 10:09:19;;;;;;;2.90;1.20;;;;;;;31.43;62.70;100597.19;5052233;28;65737;-40
2021/09/09 10:11:53;;;;;;;4.30;1.20;;;;;;;31.51;62.78;100599.53;5056687;28;70520;-41
2021/09/09 10:14:29;;;;;;;4.50;1.30;;;;;;;31.51;62.21;100594.97;5052237;28;66033;-39
2021/09/09 10:17:08;;;;;;;6.55;1.35;;;;;;;31.41;62.07;100583.84;5076779;28;69976;-40
2021/09/09 10:19:44;;;;;;;2.53;1.23;;;;;;;31.55;62.44;100593.44;5055219;28;65860;-40
2021/09/09 10:22:22;;;;;;;3.25;1.30;;;;;;;31.55;62.24;100607.00;5056684;28;70601;-39
2021/09/09 10:25:12;;;;;;;6.70;1.48;;;;;;;31.09;63.50;100531.75;5066662;27;66286;-44
2021/09/09 10:27:46;;;;;;;4.78;1.20;;;;;;;31.52;63.52;100596.63;5074194;28;69354;-40
2021/09/09 10:30:22;;;;;;;4.00;2.20;;;;;;;31.46;63.90;100597.53;5052882;28;65602;-40
2021/09/09 10:32:57;;;;;;;11.52;2.88;;;;;;;31.44;63.56;100594.22;5067909;27;70553;-41
2021/09/09 10:35:34;;;;;;;21.00;6.80;;;;;;;31.39;64.52;100607.66;5070415;28;66226;-40
2021/09/09 10:38:12;;;;;;;30.20;10.93;;;;;;;31.33;64.68;100608.53;5069444;28;70010;-39
2021/09/09 10:40:47;;;;;;;26.40;10.98;;;;;;;31.25;64.66;100606.16;5056582;28;67148;-39
2021/09/09 10:43:27;;;;;;;32.35;9.93;;;;;;;31.22;64.71;100617.44;5041527;28;70089;-40
2021/09/09 10:46:06;;;;;;;17.10;8.45;;;;;;;30.85;65.22;100569.56;5074194;28;65859;-39
2021/09/09 10:48:39;;;;;;;17.70;8.60;;;;;;;31.12;65.41;100634.22;5056812;28;69383;-40
2021/09/09 10:51:17;;;;;;;19.25;8.18;;;;;;;30.65;65.20;100558.97;5071209;28;66176;-40
2021/09/09 10:53:58;;;;;;;18.55;7.43;;;;;;;31.06;65.65;100638.69;5076013;28;43555;-40
2021/09/09 10:56:41;;;;;;;15.00;6.60;;;;;;;30.77;66.08;100593.41;5072357;28;65546;-40
2021/09/09 10:59:23;;;;;;;10.88;6.35;;;;;;;31.05;65.61;100642.47;5070500;27;70605;-40
2021/09/09 11:02:00;;;;;;;11.55;5.28;;;;;;;30.93;65.82;100630.75;5057122;28;66395;-40
2021/09/09 11:04:37;;;;;;;6.63;4.80;;;;;;;31.01;65.50;100643.13;5072825;28;69839;-40
2021/09/09 11:07:26;;;;;;;7.40;4.57;;;;;;;30.51;66.31;100576.41;5052466;28;66790;-40
2021/09/09 11:10:10;;;;;;;4.50;3.65;;;;;;;31.00;65.81;100641.50;5073216;28;69634;-41
2021/09/09 11:13:24;;;;;;;5.18;3.88;;;;;;;30.90;66.39;100661.00;5072521;28;65544;-40
2021/09/09 11:15:58;;;;;;;9.10;3.50;;;;;;;30.93;65.92;100647.81;5075283;28;69967;-40
2021/09/09 11:18:33;;;;;;;4.82;2.88;;;;;;;30.40;66.16;100552.81;5073233;28;66208;-40
2021/09/09 11:21:10;;;;;;;3.55;3.03;;;;;;;30.90;65.97;100639.31;5075010;28;70224;-40
2021/09/09 11:23:45;;;;;;;3.00;2.70;;;;;;;30.89;66.52;100634.94;5053244;28;66519;-40
2021/09/09 11:26:24;;;;;;;2.70;2.50;;;;;;;30.87;66.30;100645.16;5056575;28;69546;-40
2021/09/09 11:28:59;;;;;;;2.53;2.17;;;;;;;30.79;66.55;100634.63;5075719;28;66399;-40
2021/09/09 11:31:49;;;;;;;3.35;2.75;;;;;;;30.86;66.99;100662.47;5074808;28;70612;-41
2021/09/09 11:34:24;;;;;;;2.83;2.15;;;;;;;30.91;66.46;100670.75;5075107;28;65023;-40
2021/09/09 11:37:03;;;;;;;2.17;1.85;;;;;;;30.80;66.41;100653.38;5070426;28;70292;-40
2021/09/09 11:39:37;;;;;;;2.88;2.67;;;;;;;30.89;66.48;100680.97;5068355;28;66826;-40
2021/09/09 11:42:28;;;;;;;2.60;2.22;;;;;;;30.88;66.98;100682.03;5075655;28;69511;-39
2021/09/09 11:45:06;;;;;;;2.42;2.22;;;;;;;30.86;66.79;100689.56;5076153;28;65642;-40
2021/09/09 11:47:42;;;;;;;2.50;2.30;;;;;;;30.86;67.04;100682.25;5079202;28;69584;-40
2021/09/09 11:50:16;;;;;;;3.40;2.55;;;;;;;30.84;66.92;100683.53;5053971;28;67042;-40
2021/09/09 11:53:07;;;;;;;4.75;3.03;;;;;;;30.82;67.04;100689.19;5053836;28;69870;-39
2021/09/09 11:55:42;;;;;;;3.38;2.33;;;;;;;30.84;67.08;100697.06;5062851;28;66368;-39
2021/09/09 11:58:42;;;;;;;3.65;2.60;;;;;;;30.67;66.54;100692.25;5067929;28;69376;-42
2021/09/09 12:01:25;;;;;;;7.20;2.72;;;;;;;30.65;66.59;100699.75;5045799;28;67577;-41
2021/09/09 12:04:07;;;;;;;3.17;2.90;;;;;;;30.05;66.39;100631.75;5059047;28;70169;-40
2021/09/09 12:06:41;;;;;;;5.70;3.22;;;;;;;30.53;67.12;100715.03;5072411;28;66092;-40
2021/09/09 12:09:51;;;;;;;3.22;2.92;;;;;;;30.43;67.63;100733.69;5070021;28;70423;-40
2021/09/09 12:12:40;;;;;;;4.88;3.28;;;;;;;30.37;67.60;100734.53;5039819;28;65156;-40
2021/09/09 12:15:25;;;;;;;4.35;2.60;;;;;;;30.34;67.54;100734.97;5076476;28;69940;-43
2021/09/09 12:18:09;;;;;;;2.67;2.47;;;;;;;30.28;67.46;100740.25;5042102;28;68130;-41
2021/09/09 12:20:49;;;;;;;3.22;2.92;;;;;;;30.24;67.34;100752.53;5058972;28;70284;-41
2021/09/09 12:23:24;;;;;;;3.78;3.00;;;;;;;30.22;68.09;100751.94;5042020;28;66405;-40
2021/09/09 12:26:22;;;;;;;4.38;3.25;;;;;;;30.08;68.74;100758.44;5077579;28;69682;-41
2021/09/09 12:29:14;;;;;;;2.97;2.73;;;;;;;30.05;68.82;100758.88;5074910;28;66466;-40
2021/09/09 12:31:53;;;;;;;10.85;3.33;;;;;;;30.14;68.43;100768.38;5055203;28;70406;-43
2021/09/09 12:34:49;;;;;;;12.40;3.60;;;;;;;30.18;67.39;100785.84;5058859;28;66265;-41
2021/09/09 12:37:34;;;;;;;6.07;2.95;;;;;;;30.03;66.35;100788.03;5051070;28;70938;-37
2021/09/09 12:40:38;;;;;;;3.53;2.95;;;;;;;29.93;64.16;100790.38;5039725;28;66315;-39
2021/09/09 12:43:36;;;;;;;12.27;3.30;;;;;;;29.96;63.80;100785.38;5031909;28;69687;-38
2021/09/09 12:46:35;;;;;;;6.25;3.50;;;;;;;29.92;63.50;100791.41;5055982;28;67305;-38